sensor_id;sensor_type;location;lat;lon;timestamp;temperature;humidity
2497;DHT22;1259;48.306;14.374;2023-04-03T00:00:16;2.30;99.90
2497;DHT22;1259;48.306;14.374;2023-04-03T00:02:43;2.30;99.90
2497;DHT22;1259;48.306;14.374;2023-04-03T00:05:09;2.30;99.90
2497;DHT22;1259;48.306;14.374;2023-04-03T00:07:38;2.30;99.90
2497;DHT22;1259;48.306;14.374;2023-04-03T00:10:05;2.30;99.90
2497;DHT22;1259;48.306;14.374;2023-04-03T00:12:32;2.30;99.90
2497;DHT22;1259;48.306;14.374;2023-04-03T00:14:58;2.30;99.90
2497;DHT22;1259;48.306;14.374;2023-04-03T00:17:25;2.30;99.90
2497;DHT22;1259;48.306;14.374;2023-04-03T00:19:51;2.30;99.90
2497;DHT22;1259;48.306;14.374;2023-04-03T00:22:18;2.30;99.90
2497;DHT22;1259;48.306;14.374;2023-04-03T00:24:46;2.30;99.90
2497;DHT22;1259;48.306;14.374;2023-04-03T00:27:13;2.30;99.90
2497;DHT22;1259;48.306;14.374;2023-04-03T00:29:41;2.30;99.90
2497;DHT22;1259;48.306;14.374;2023-04-03T00:32:07;2.30;99.90
2497;DHT22;1259;48.306;14.374;2023-04-03T00:34:34;2.30;99.90
2497;DHT22;1259;48.306;14.374;2023-04-03T00:37:01;2.30;99.90
2497;DHT22;1259;48.306;14.374;2023-04-03T00:39:27;2.30;99.90
2497;DHT22;1259;48.306;14.374;2023-04-03T00:41:55;2.30;99.90
2497;DHT22;1259;48.306;14.374;2023-04-03T00:44:23;2.30;99.90
2497;DHT22;1259;48.306;14.374;2023-04-03T00:47:10;2.30;99.90
2497;DHT22;1259;48.306;14.374;2023-04-03T00:49:37;2.30;99.90
2497;DHT22;1259;48.306;14.374;2023-04-03T00:52:04;2.30;99.90
2497;DHT22;1259;48.306;14.374;2023-04-03T00:54:32;2.30;99.90
2497;DHT22;1259;48.306;14.374;2023-04-03T00:57:02;2.30;99.90
2497;DHT22;1259;48.306;14.374;2023-04-03T00:59:30;2.20;99.90
2497;DHT22;1259;48.306;14.374;2023-04-03T01:01:58;2.30;99.90
2497;DHT22;1259;48.306;14.374;2023-04-03T01:04:26;2.20;99.90
2497;DHT22;1259;48.306;14.374;2023-04-03T01:06:53;2.30;99.90
2497;DHT22;1259;48.306;14.374;2023-04-03T01:09:21;2.30;99.90
2497;DHT22;1259;48.306;14.374;2023-04-03T01:11:48;2.30;99.90
2497;DHT22;1259;48.306;14.374;2023-04-03T01:14:16;2.20;99.90
2497;DHT22;1259;48.306;14.374;2023-04-03T01:16:43;2.20;99.90
2497;DHT22;1259;48.306;14.374;2023-04-03T01:19:11;2.20;99.90
2497;DHT22;1259;48.306;14.374;2023-04-03T01:21:53;2.10;99.90
2497;DHT22;1259;48.306;14.374;2023-04-03T01:24:22;2.10;99.90
2497;DHT22;1259;48.306;14.374;2023-04-03T01:26:53;2.20;99.90
2497;DHT22;1259;48.306;14.374;2023-04-03T01:29:21;2.20;99.90
2497;DHT22;1259;48.306;14.374;2023-04-03T01:31:50;2.20;99.90
2497;DHT22;1259;48.306;14.374;2023-04-03T01:34:17;2.20;99.90
2497;DHT22;1259;48.306;14.374;2023-04-03T01:36:43;2.10;99.90
2497;DHT22;1259;48.306;14.374;2023-04-03T01:39:10;2.20;99.90
2497;DHT22;1259;48.306;14.374;2023-04-03T01:41:37;2.20;99.90
2497;DHT22;1259;48.306;14.374;2023-04-03T01:44:06;2.20;99.90
2497;DHT22;1259;48.306;14.374;2023-04-03T01:46:32;2.10;99.90
2497;DHT22;1259;48.306;14.374;2023-04-03T01:49:00;2.10;99.90
2497;DHT22;1259;48.306;14.374;2023-04-03T01:51:27;2.10;99.90
2497;DHT22;1259;48.306;14.374;2023-04-03T01:53:54;2.20;99.90
2497;DHT22;1259;48.306;14.374;2023-04-03T01:56:20;2.20;99.90
2497;DHT22;1259;48.306;14.374;2023-04-03T01:58:47;2.20;99.90
2497;DHT22;1259;48.306;14.374;2023-04-03T02:01:14;2.10;99.90
2497;DHT22;1259;48.306;14.374;2023-04-03T02:03:41;2.20;99.90
2497;DHT22;1259;48.306;14.374;2023-04-03T02:06:09;2.20;99.90
2497;DHT22;1259;48.306;14.374;2023-04-03T02:08:36;2.20;99.90
2497;DHT22;1259;48.306;14.374;2023-04-03T02:11:02;2.20;99.90
2497;DHT22;1259;48.306;14.374;2023-04-03T02:13:29;2.20;99.90
2497;DHT22;1259;48.306;14.374;2023-04-03T02:15:56;2.20;99.90
2497;DHT22;1259;48.306;14.374;2023-04-03T02:18:22;2.20;99.90
2497;DHT22;1259;48.306;14.374;2023-04-03T02:20:49;2.20;99.90
2497;DHT22;1259;48.306;14.374;2023-04-03T02:23:17;2.20;99.90
2497;DHT22;1259;48.306;14.374;2023-04-03T02:25:44;2.20;99.90
2497;DHT22;1259;48.306;14.374;2023-04-03T02:28:10;2.10;99.90
2497;DHT22;1259;48.306;14.374;2023-04-03T02:30:37;2.10;99.90
2497;DHT22;1259;48.306;14.374;2023-04-03T02:33:04;2.10;99.90
2497;DHT22;1259;48.306;14.374;2023-04-03T02:35:30;2.10;99.90
2497;DHT22;1259;48.306;14.374;2023-04-03T02:37:57;2.10;99.90
2497;DHT22;1259;48.306;14.374;2023-04-03T02:40:25;2.10;99.90
2497;DHT22;1259;48.306;14.374;2023-04-03T02:42:52;2.10;99.90
2497;DHT22;1259;48.306;14.374;2023-04-03T02:45:18;2.10;99.90
2497;DHT22;1259;48.306;14.374;2023-04-03T02:47:45;2.20;99.90
2497;DHT22;1259;48.306;14.374;2023-04-03T02:50:11;2.10;99.90
2497;DHT22;1259;48.306;14.374;2023-04-03T02:52:38;2.10;99.90
2497;DHT22;1259;48.306;14.374;2023-04-03T02:55:05;2.10;99.90
2497;DHT22;1259;48.306;14.374;2023-04-03T02:57:33;2.10;99.90
2497;DHT22;1259;48.306;14.374;2023-04-03T03:00:00;2.10;99.90
2497;DHT22;1259;48.306;14.374;2023-04-03T03:02:27;2.10;99.90
2497;DHT22;1259;48.306;14.374;2023-04-03T03:04:54;2.10;99.90
2497;DHT22;1259;48.306;14.374;2023-04-03T03:07:20;2.10;99.90
2497;DHT22;1259;48.306;14.374;2023-04-03T03:09:47;2.10;99.90
2497;DHT22;1259;48.306;14.374;2023-04-03T03:12:14;2.10;99.90
2497;DHT22;1259;48.306;14.374;2023-04-03T03:14:42;2.10;99.90
2497;DHT22;1259;48.306;14.374;2023-04-03T03:17:09;2.00;99.90
2497;DHT22;1259;48.306;14.374;2023-04-03T03:19:35;2.00;99.90
2497;DHT22;1259;48.306;14.374;2023-04-03T03:22:02;2.00;99.90
2497;DHT22;1259;48.306;14.374;2023-04-03T03:24:29;2.00;99.90
2497;DHT22;1259;48.306;14.374;2023-04-03T03:26:55;2.00;99.90
2497;DHT22;1259;48.306;14.374;2023-04-03T03:29:22;2.00;99.90
2497;DHT22;1259;48.306;14.374;2023-04-03T03:31:50;2.00;99.90
2497;DHT22;1259;48.306;14.374;2023-04-03T03:34:17;2.00;99.90
2497;DHT22;1259;48.306;14.374;2023-04-03T03:36:44;1.90;99.90
2497;DHT22;1259;48.306;14.374;2023-04-03T03:39:10;2.00;99.90
2497;DHT22;1259;48.306;14.374;2023-04-03T03:41:37;2.00;99.90
2497;DHT22;1259;48.306;14.374;2023-04-03T03:44:04;2.00;99.90
2497;DHT22;1259;48.306;14.374;2023-04-03T03:46:30;1.90;99.90
2497;DHT22;1259;48.306;14.374;2023-04-03T03:48:58;1.90;99.90
2497;DHT22;1259;48.306;14.374;2023-04-03T03:51:25;1.90;99.90
2497;DHT22;1259;48.306;14.374;2023-04-03T03:53:52;1.90;99.90
2497;DHT22;1259;48.306;14.374;2023-04-03T03:56:19;1.90;99.90
2497;DHT22;1259;48.306;14.374;2023-04-03T03:58:45;1.90;99.90
2497;DHT22;1259;48.306;14.374;2023-04-03T04:01:12;1.90;99.90
2497;DHT22;1259;48.306;14.374;2023-04-03T04:03:38;2.00;99.90
2497;DHT22;1259;48.306;14.374;2023-04-03T04:06:07;2.00;99.90
2497;DHT22;1259;48.306;14.374;2023-04-03T04:08:33;2.10;99.90
2497;DHT22;1259;48.306;14.374;2023-04-03T04:11:00;2.00;99.90
2497;DHT22;1259;48.306;14.374;2023-04-03T04:13:27;2.00;99.90
2497;DHT22;1259;48.306;14.374;2023-04-03T04:15:53;2.00;99.90
2497;DHT22;1259;48.306;14.374;2023-04-03T04:18:20;2.00;99.90
2497;DHT22;1259;48.306;14.374;2023-04-03T04:20:47;2.00;99.90
2497;DHT22;1259;48.306;14.374;2023-04-03T04:23:16;2.10;99.90
2497;DHT22;1259;48.306;14.374;2023-04-03T04:25:43;2.10;99.90
2497;DHT22;1259;48.306;14.374;2023-04-03T04:28:10;2.00;99.90
2497;DHT22;1259;48.306;14.374;2023-04-03T04:30:37;2.00;99.90
2497;DHT22;1259;48.306;14.374;2023-04-03T04:33:04;2.00;99.90
2497;DHT22;1259;48.306;14.374;2023-04-03T04:35:30;2.10;99.90
2497;DHT22;1259;48.306;14.374;2023-04-03T04:37:57;2.00;99.90
2497;DHT22;1259;48.306;14.374;2023-04-03T04:40:25;2.10;99.90
2497;DHT22;1259;48.306;14.374;2023-04-03T04:42:52;2.10;99.90
2497;DHT22;1259;48.306;14.374;2023-04-03T04:45:19;2.10;99.90
2497;DHT22;1259;48.306;14.374;2023-04-03T04:47:45;2.00;99.90
2497;DHT22;1259;48.306;14.374;2023-04-03T04:50:12;2.00;99.90
2497;DHT22;1259;48.306;14.374;2023-04-03T04:52:39;2.00;99.90
2497;DHT22;1259;48.306;14.374;2023-04-03T04:55:06;2.00;99.90
2497;DHT22;1259;48.306;14.374;2023-04-03T04:57:35;2.10;99.90
2497;DHT22;1259;48.306;14.374;2023-04-03T05:00:02;2.10;99.90
2497;DHT22;1259;48.306;14.374;2023-04-03T05:02:29;2.10;99.90
2497;DHT22;1259;48.306;14.374;2023-04-03T05:04:56;2.10;99.90
2497;DHT22;1259;48.306;14.374;2023-04-03T05:07:22;2.10;99.90
2497;DHT22;1259;48.306;14.374;2023-04-03T05:09:49;2.10;99.90
2497;DHT22;1259;48.306;14.374;2023-04-03T05:12:16;2.10;99.90
2497;DHT22;1259;48.306;14.374;2023-04-03T05:14:44;2.20;99.90
2497;DHT22;1259;48.306;14.374;2023-04-03T05:17:11;2.10;99.90
2497;DHT22;1259;48.306;14.374;2023-04-03T05:19:37;2.10;99.90
2497;DHT22;1259;48.306;14.374;2023-04-03T05:22:04;2.10;99.90
2497;DHT22;1259;48.306;14.374;2023-04-03T05:24:31;2.10;99.90
2497;DHT22;1259;48.306;14.374;2023-04-03T05:26:58;2.10;99.90
2497;DHT22;1259;48.306;14.374;2023-04-03T05:29:25;2.20;99.90
2497;DHT22;1259;48.306;14.374;2023-04-03T05:31:53;2.20;99.90
2497;DHT22;1259;48.306;14.374;2023-04-03T05:34:19;2.10;99.90
2497;DHT22;1259;48.306;14.374;2023-04-03T05:36:46;2.10;99.90
2497;DHT22;1259;48.306;14.374;2023-04-03T05:39:13;2.10;99.90
2497;DHT22;1259;48.306;14.374;2023-04-03T05:41:39;2.10;99.90
2497;DHT22;1259;48.306;14.374;2023-04-03T05:44:06;2.10;99.90
2497;DHT22;1259;48.306;14.374;2023-04-03T05:46:32;2.10;99.90
2497;DHT22;1259;48.306;14.374;2023-04-03T05:49:01;2.20;99.90
2497;DHT22;1259;48.306;14.374;2023-04-03T05:51:28;2.10;99.90
2497;DHT22;1259;48.306;14.374;2023-04-03T05:53:56;2.20;99.90
2497;DHT22;1259;48.306;14.374;2023-04-03T05:56:25;2.20;99.90
2497;DHT22;1259;48.306;14.374;2023-04-03T05:58:52;2.20;99.90
2497;DHT22;1259;48.306;14.374;2023-04-03T06:01:19;2.20;99.90
2497;DHT22;1259;48.306;14.374;2023-04-03T06:03:45;2.20;99.90
2497;DHT22;1259;48.306;14.374;2023-04-03T06:06:14;2.20;99.90
2497;DHT22;1259;48.306;14.374;2023-04-03T06:08:40;2.30;99.90
2497;DHT22;1259;48.306;14.374;2023-04-03T06:11:08;2.30;99.90
2497;DHT22;1259;48.306;14.374;2023-04-03T06:13:35;2.30;99.90
2497;DHT22;1259;48.306;14.374;2023-04-03T06:16:02;2.20;99.90
2497;DHT22;1259;48.306;14.374;2023-04-03T06:18:29;2.20;99.90
2497;DHT22;1259;48.306;14.374;2023-04-03T06:20:56;2.20;99.90
2497;DHT22;1259;48.306;14.374;2023-04-03T06:23:25;2.20;99.90
2497;DHT22;1259;48.306;14.374;2023-04-03T06:25:51;2.10;99.90
2497;DHT22;1259;48.306;14.374;2023-04-03T06:28:18;2.10;99.90
2497;DHT22;1259;48.306;14.374;2023-04-03T06:30:45;2.10;99.90
2497;DHT22;1259;48.306;14.374;2023-04-03T06:33:12;2.10;99.90
2497;DHT22;1259;48.306;14.374;2023-04-03T06:35:38;1.90;99.90
2497;DHT22;1259;48.306;14.374;2023-04-03T06:38:06;1.80;99.90
2497;DHT22;1259;48.306;14.374;2023-04-03T06:40:36;1.70;99.90
2497;DHT22;1259;48.306;14.374;2023-04-03T06:43:03;1.50;99.90
2497;DHT22;1259;48.306;14.374;2023-04-03T06:45:30;1.60;99.90
2497;DHT22;1259;48.306;14.374;2023-04-03T06:47:57;1.60;99.90
2497;DHT22;1259;48.306;14.374;2023-04-03T06:50:23;1.80;99.90
2497;DHT22;1259;48.306;14.374;2023-04-03T06:52:50;1.80;99.90
2497;DHT22;1259;48.306;14.374;2023-04-03T06:55:17;1.90;99.90
2497;DHT22;1259;48.306;14.374;2023-04-03T06:57:45;2.00;99.90
2497;DHT22;1259;48.306;14.374;2023-04-03T07:00:13;2.10;99.90
2497;DHT22;1259;48.306;14.374;2023-04-03T07:02:40;2.10;99.90
2497;DHT22;1259;48.306;14.374;2023-04-03T07:05:07;2.10;99.90
2497;DHT22;1259;48.306;14.374;2023-04-03T07:07:34;2.10;99.90
2497;DHT22;1259;48.306;14.374;2023-04-03T07:10:01;2.10;99.90
2497;DHT22;1259;48.306;14.374;2023-04-03T07:12:28;2.10;99.90
2497;DHT22;1259;48.306;14.374;2023-04-03T07:14:56;2.20;99.90
2497;DHT22;1259;48.306;14.374;2023-04-03T07:17:22;2.20;99.90
2497;DHT22;1259;48.306;14.374;2023-04-03T07:19:50;2.20;99.90
2497;DHT22;1259;48.306;14.374;2023-04-03T07:22:17;2.20;99.90
2497;DHT22;1259;48.306;14.374;2023-04-03T07:24:44;2.00;99.90
2497;DHT22;1259;48.306;14.374;2023-04-03T07:27:10;2.00;99.90
2497;DHT22;1259;48.306;14.374;2023-04-03T07:29:38;2.10;99.90
2497;DHT22;1259;48.306;14.374;2023-04-03T07:32:06;1.90;99.90
2497;DHT22;1259;48.306;14.374;2023-04-03T07:34:33;1.80;99.90
2497;DHT22;1259;48.306;14.374;2023-04-03T07:36:59;1.80;99.90
2497;DHT22;1259;48.306;14.374;2023-04-03T07:39:26;1.70;99.90
2497;DHT22;1259;48.306;14.374;2023-04-03T07:41:53;1.60;99.90
2497;DHT22;1259;48.306;14.374;2023-04-03T07:44:20;1.50;99.90
2497;DHT22;1259;48.306;14.374;2023-04-03T07:46:47;1.50;99.90
2497;DHT22;1259;48.306;14.374;2023-04-03T07:49:17;1.40;99.90
2497;DHT22;1259;48.306;14.374;2023-04-03T07:51:44;1.40;99.90
2497;DHT22;1259;48.306;14.374;2023-04-03T07:54:12;1.10;99.90
2497;DHT22;1259;48.306;14.374;2023-04-03T07:56:38;1.10;99.90
2497;DHT22;1259;48.306;14.374;2023-04-03T07:59:05;1.20;99.90
2497;DHT22;1259;48.306;14.374;2023-04-03T08:01:32;1.10;99.90
2497;DHT22;1259;48.306;14.374;2023-04-03T08:03:59;1.10;99.90
2497;DHT22;1259;48.306;14.374;2023-04-03T08:06:27;1.20;99.90
2497;DHT22;1259;48.306;14.374;2023-04-03T08:08:55;1.20;99.90
2497;DHT22;1259;48.306;14.374;2023-04-03T08:11:21;1.30;99.90
2497;DHT22;1259;48.306;14.374;2023-04-03T08:13:49;1.30;99.90
2497;DHT22;1259;48.306;14.374;2023-04-03T08:16:16;1.30;99.90
2497;DHT22;1259;48.306;14.374;2023-04-03T08:18:43;1.30;99.90
2497;DHT22;1259;48.306;14.374;2023-04-03T08:21:11;1.40;99.90
2497;DHT22;1259;48.306;14.374;2023-04-03T08:23:39;1.30;99.90
2497;DHT22;1259;48.306;14.374;2023-04-03T08:26:08;1.30;99.90
2497;DHT22;1259;48.306;14.374;2023-04-03T08:28:34;1.30;99.90
2497;DHT22;1259;48.306;14.374;2023-04-03T08:31:04;1.40;99.90
2497;DHT22;1259;48.306;14.374;2023-04-03T08:33:32;1.40;99.90
2497;DHT22;1259;48.306;14.374;2023-04-03T08:36:01;1.40;99.90
2497;DHT22;1259;48.306;14.374;2023-04-03T08:38:28;1.30;99.90
2497;DHT22;1259;48.306;14.374;2023-04-03T08:41:07;1.30;99.90
2497;DHT22;1259;48.306;14.374;2023-04-03T08:43:39;1.40;99.90
2497;DHT22;1259;48.306;14.374;2023-04-03T08:46:10;1.50;99.90
2497;DHT22;1259;48.306;14.374;2023-04-03T08:48:38;1.50;99.90
2497;DHT22;1259;48.306;14.374;2023-04-03T08:51:09;1.50;99.90
2497;DHT22;1259;48.306;14.374;2023-04-03T08:53:39;1.70;99.90
2497;DHT22;1259;48.306;14.374;2023-04-03T08:56:08;1.80;99.90
2497;DHT22;1259;48.306;14.374;2023-04-03T08:58:38;1.90;99.90
2497;DHT22;1259;48.306;14.374;2023-04-03T09:01:10;2.20;99.90
2497;DHT22;1259;48.306;14.374;2023-04-03T09:03:43;2.30;99.90
2497;DHT22;1259;48.306;14.374;2023-04-03T09:06:10;2.20;99.90
2497;DHT22;1259;48.306;14.374;2023-04-03T09:08:40;2.10;99.90
2497;DHT22;1259;48.306;14.374;2023-04-03T09:11:12;1.90;99.90
2497;DHT22;1259;48.306;14.374;2023-04-03T09:13:44;1.90;99.90
2497;DHT22;1259;48.306;14.374;2023-04-03T09:16:15;2.00;99.90
2497;DHT22;1259;48.306;14.374;2023-04-03T09:18:45;2.00;99.90
2497;DHT22;1259;48.306;14.374;2023-04-03T09:21:16;2.10;99.90
2497;DHT22;1259;48.306;14.374;2023-04-03T09:23:45;2.10;99.90
2497;DHT22;1259;48.306;14.374;2023-04-03T09:26:16;2.20;99.90
2497;DHT22;1259;48.306;14.374;2023-04-03T09:28:44;2.30;99.90
2497;DHT22;1259;48.306;14.374;2023-04-03T09:31:14;2.40;99.90
2497;DHT22;1259;48.306;14.374;2023-04-03T09:33:43;2.40;99.90
2497;DHT22;1259;48.306;14.374;2023-04-03T09:36:10;2.20;99.90
2497;DHT22;1259;48.306;14.374;2023-04-03T09:38:37;2.40;99.90
2497;DHT22;1259;48.306;14.374;2023-04-03T09:41:05;2.50;99.90
2497;DHT22;1259;48.306;14.374;2023-04-03T09:43:34;2.40;99.90
2497;DHT22;1259;48.306;14.374;2023-04-03T09:46:17;2.40;99.90
2497;DHT22;1259;48.306;14.374;2023-04-03T09:48:49;2.60;99.90
2497;DHT22;1259;48.306;14.374;2023-04-03T09:51:16;2.80;99.90
2497;DHT22;1259;48.306;14.374;2023-04-03T09:53:44;2.70;99.90
2497;DHT22;1259;48.306;14.374;2023-04-03T09:56:18;2.40;99.90
2497;DHT22;1259;48.306;14.374;2023-04-03T09:58:49;2.60;99.90
2497;DHT22;1259;48.306;14.374;2023-04-03T10:01:26;2.40;99.90
2497;DHT22;1259;48.306;14.374;2023-04-03T10:04:03;2.70;99.90
2497;DHT22;1259;48.306;14.374;2023-04-03T10:06:31;2.70;99.90
2497;DHT22;1259;48.306;14.374;2023-04-03T10:08:58;2.60;99.90
2497;DHT22;1259;48.306;14.374;2023-04-03T10:11:26;2.70;99.90
2497;DHT22;1259;48.306;14.374;2023-04-03T10:13:55;2.70;99.90
2497;DHT22;1259;48.306;14.374;2023-04-03T10:16:29;2.60;99.90
2497;DHT22;1259;48.306;14.374;2023-04-03T10:19:03;2.50;99.90
2497;DHT22;1259;48.306;14.374;2023-04-03T10:21:34;2.70;99.90
2497;DHT22;1259;48.306;14.374;2023-04-03T10:24:06;2.50;99.90
2497;DHT22;1259;48.306;14.374;2023-04-03T10:26:36;2.50;99.90
2497;DHT22;1259;48.306;14.374;2023-04-03T10:29:07;2.20;99.90
2497;DHT22;1259;48.306;14.374;2023-04-03T10:31:37;3.10;99.90
2497;DHT22;1259;48.306;14.374;2023-04-03T10:34:10;2.90;99.90
2497;DHT22;1259;48.306;14.374;2023-04-03T10:36:46;3.30;99.90
2497;DHT22;1259;48.306;14.374;2023-04-03T10:39:17;2.90;99.90
2497;DHT22;1259;48.306;14.374;2023-04-03T10:41:48;3.00;99.90
2497;DHT22;1259;48.306;14.374;2023-04-03T10:44:20;2.70;99.90
2497;DHT22;1259;48.306;14.374;2023-04-03T10:46:49;2.90;99.90
2497;DHT22;1259;48.306;14.374;2023-04-03T10:49:25;3.10;99.90
2497;DHT22;1259;48.306;14.374;2023-04-03T10:51:55;3.10;99.90
2497;DHT22;1259;48.306;14.374;2023-04-03T10:54:26;3.00;99.90
2497;DHT22;1259;48.306;14.374;2023-04-03T10:56:54;3.30;99.90
2497;DHT22;1259;48.306;14.374;2023-04-03T10:59:25;3.30;99.90
2497;DHT22;1259;48.306;14.374;2023-04-03T11:01:53;2.90;99.50
2497;DHT22;1259;48.306;14.374;2023-04-03T11:04:21;3.10;99.90
2497;DHT22;1259;48.306;14.374;2023-04-03T11:06:50;3.70;99.90
2497;DHT22;1259;48.306;14.374;2023-04-03T11:09:19;3.60;99.90
2497;DHT22;1259;48.306;14.374;2023-04-03T11:11:47;3.30;99.90
2497;DHT22;1259;48.306;14.374;2023-04-03T11:14:17;3.60;99.90
2497;DHT22;1259;48.306;14.374;2023-04-03T11:16:48;3.40;99.90
2497;DHT22;1259;48.306;14.374;2023-04-03T11:19:18;2.80;99.50
2497;DHT22;1259;48.306;14.374;2023-04-03T11:21:51;3.00;99.90
2497;DHT22;1259;48.306;14.374;2023-04-03T11:24:22;3.00;99.80
2497;DHT22;1259;48.306;14.374;2023-04-03T11:26:50;2.60;96.60
2497;DHT22;1259;48.306;14.374;2023-04-03T11:29:18;2.60;98.00
2497;DHT22;1259;48.306;14.374;2023-04-03T11:31:54;2.70;95.70
2497;DHT22;1259;48.306;14.374;2023-04-03T11:34:28;2.80;95.20
2497;DHT22;1259;48.306;14.374;2023-04-03T11:36:58;2.70;94.20
2497;DHT22;1259;48.306;14.374;2023-04-03T11:39:26;2.70;93.70
2497;DHT22;1259;48.306;14.374;2023-04-03T11:41:54;2.70;91.90
2497;DHT22;1259;48.306;14.374;2023-04-03T11:44:32;2.70;92.10
2497;DHT22;1259;48.306;14.374;2023-04-03T11:47:01;3.00;92.20
2497;DHT22;1259;48.306;14.374;2023-04-03T11:52:13;3.10;91.60
2497;DHT22;1259;48.306;14.374;2023-04-03T11:55:00;2.90;93.20
2497;DHT22;1259;48.306;14.374;2023-04-03T11:57:43;2.80;93.70
2497;DHT22;1259;48.306;14.374;2023-04-03T12:02:57;3.30;94.20
2497;DHT22;1259;48.306;14.374;2023-04-03T12:05:25;3.30;94.10
2497;DHT22;1259;48.306;14.374;2023-04-03T12:10:34;3.40;92.40
2497;DHT22;1259;48.306;14.374;2023-04-03T12:13:01;3.60;95.30
2497;DHT22;1259;48.306;14.374;2023-04-03T12:20:58;3.40;92.70
2497;DHT22;1259;48.306;14.374;2023-04-03T12:23:31;3.20;90.20
2497;DHT22;1259;48.306;14.374;2023-04-03T12:25:59;3.40;91.70
2497;DHT22;1259;48.306;14.374;2023-04-03T12:28:31;3.80;92.40
2497;DHT22;1259;48.306;14.374;2023-04-03T12:31:02;4.20;91.70
2497;DHT22;1259;48.306;14.374;2023-04-03T12:33:32;4.30;90.00
2497;DHT22;1259;48.306;14.374;2023-04-03T12:36:07;3.80;88.40
2497;DHT22;1259;48.306;14.374;2023-04-03T12:38:41;3.50;91.70
2497;DHT22;1259;48.306;14.374;2023-04-03T12:41:21;3.30;88.70
2497;DHT22;1259;48.306;14.374;2023-04-03T12:46:36;3.30;91.50
2497;DHT22;1259;48.306;14.374;2023-04-03T12:49:12;3.00;93.30
2497;DHT22;1259;48.306;14.374;2023-04-03T12:51:42;2.70;92.90
2497;DHT22;1259;48.306;14.374;2023-04-03T12:54:12;2.50;92.40
2497;DHT22;1259;48.306;14.374;2023-04-03T12:56:40;2.50;91.00
2497;DHT22;1259;48.306;14.374;2023-04-03T12:59:13;2.70;92.90
2497;DHT22;1259;48.306;14.374;2023-04-03T13:01:41;2.80;91.00
2497;DHT22;1259;48.306;14.374;2023-04-03T13:04:09;3.10;90.70
2497;DHT22;1259;48.306;14.374;2023-04-03T13:06:37;3.20;88.80
2497;DHT22;1259;48.306;14.374;2023-04-03T13:09:14;3.50;89.60
2497;DHT22;1259;48.306;14.374;2023-04-03T13:11:44;3.50;89.90
2497;DHT22;1259;48.306;14.374;2023-04-03T13:14:14;3.40;90.00
2497;DHT22;1259;48.306;14.374;2023-04-03T13:16:41;3.40;91.50
2497;DHT22;1259;48.306;14.374;2023-04-03T13:19:14;3.60;90.80
2497;DHT22;1259;48.306;14.374;2023-04-03T13:21:42;3.40;87.90
2497;DHT22;1259;48.306;14.374;2023-04-03T13:24:10;3.70;88.80
2497;DHT22;1259;48.306;14.374;2023-04-03T13:26:38;3.40;88.40
2497;DHT22;1259;48.306;14.374;2023-04-03T13:29:07;3.60;91.80
2497;DHT22;1259;48.306;14.374;2023-04-03T13:31:43;4.00;88.10
2497;DHT22;1259;48.306;14.374;2023-04-03T13:34:10;3.70;86.80
2497;DHT22;1259;48.306;14.374;2023-04-03T13:36:38;3.60;85.60
2497;DHT22;1259;48.306;14.374;2023-04-03T13:39:06;3.50;89.50
2497;DHT22;1259;48.306;14.374;2023-04-03T13:41:38;3.20;88.50
2497;DHT22;1259;48.306;14.374;2023-04-03T13:44:15;2.90;90.40
2497;DHT22;1259;48.306;14.374;2023-04-03T13:46:42;2.80;89.40
2497;DHT22;1259;48.306;14.374;2023-04-03T13:49:17;2.80;89.80
2497;DHT22;1259;48.306;14.374;2023-04-03T13:51:44;2.80;90.10
2497;DHT22;1259;48.306;14.374;2023-04-03T13:54:15;3.00;90.10
2497;DHT22;1259;48.306;14.374;2023-04-03T13:56:44;3.20;88.00
2497;DHT22;1259;48.306;14.374;2023-04-03T13:59:23;3.50;88.80
2497;DHT22;1259;48.306;14.374;2023-04-03T14:01:52;3.40;86.50
2497;DHT22;1259;48.306;14.374;2023-04-03T14:04:22;3.30;84.40
2497;DHT22;1259;48.306;14.374;2023-04-03T14:06:49;3.20;84.30
2497;DHT22;1259;48.306;14.374;2023-04-03T14:09:17;3.40;87.00
2497;DHT22;1259;48.306;14.374;2023-04-03T14:11:45;3.00;81.90
2497;DHT22;1259;48.306;14.374;2023-04-03T14:14:14;2.80;79.30
2497;DHT22;1259;48.306;14.374;2023-04-03T14:16:41;2.60;81.20
2497;DHT22;1259;48.306;14.374;2023-04-03T14:19:11;2.50;82.80
2497;DHT22;1259;48.306;14.374;2023-04-03T14:21:41;2.60;82.80
2497;DHT22;1259;48.306;14.374;2023-04-03T14:24:07;2.80;84.30
2497;DHT22;1259;48.306;14.374;2023-04-03T14:26:34;2.70;83.50
2497;DHT22;1259;48.306;14.374;2023-04-03T14:29:02;2.70;86.90
2497;DHT22;1259;48.306;14.374;2023-04-03T14:31:29;2.90;87.40
2497;DHT22;1259;48.306;14.374;2023-04-03T14:33:55;2.80;88.30
2497;DHT22;1259;48.306;14.374;2023-04-03T14:36:22;2.90;86.90
2497;DHT22;1259;48.306;14.374;2023-04-03T14:38:50;2.60;85.30
2497;DHT22;1259;48.306;14.374;2023-04-03T14:41:18;2.60;87.10
2497;DHT22;1259;48.306;14.374;2023-04-03T14:43:46;2.50;86.70
2497;DHT22;1259;48.306;14.374;2023-04-03T14:46:14;2.70;88.80
2497;DHT22;1259;48.306;14.374;2023-04-03T14:48:42;2.80;85.60
2497;DHT22;1259;48.306;14.374;2023-04-03T14:51:09;3.00;88.10
2497;DHT22;1259;48.306;14.374;2023-04-03T14:53:36;3.10;88.70
2497;DHT22;1259;48.306;14.374;2023-04-03T14:56:04;3.20;84.80
2497;DHT22;1259;48.306;14.374;2023-04-03T14:58:31;2.90;84.10
2497;DHT22;1259;48.306;14.374;2023-04-03T15:00:58;2.90;84.60
2497;DHT22;1259;48.306;14.374;2023-04-03T15:03:26;3.00;85.10
2497;DHT22;1259;48.306;14.374;2023-04-03T15:05:53;3.00;85.70
2497;DHT22;1259;48.306;14.374;2023-04-03T15:08:21;2.90;87.90
2497;DHT22;1259;48.306;14.374;2023-04-03T15:10:49;2.90;85.80
2497;DHT22;1259;48.306;14.374;2023-04-03T15:13:17;2.80;87.30
2497;DHT22;1259;48.306;14.374;2023-04-03T15:15:45;2.80;86.30
2497;DHT22;1259;48.306;14.374;2023-04-03T15:18:14;2.70;84.20
2497;DHT22;1259;48.306;14.374;2023-04-03T15:20:43;2.60;87.00
2497;DHT22;1259;48.306;14.374;2023-04-03T15:23:10;2.40;88.00
2497;DHT22;1259;48.306;14.374;2023-04-03T15:25:37;2.30;89.50
2497;DHT22;1259;48.306;14.374;2023-04-03T15:28:05;2.40;90.20
2497;DHT22;1259;48.306;14.374;2023-04-03T15:30:31;2.30;90.70
2497;DHT22;1259;48.306;14.374;2023-04-03T15:32:58;2.30;90.70
2497;DHT22;1259;48.306;14.374;2023-04-03T15:35:25;2.40;87.90
2497;DHT22;1259;48.306;14.374;2023-04-03T15:37:53;2.50;87.90
2497;DHT22;1259;48.306;14.374;2023-04-03T15:40:20;2.50;89.70
2497;DHT22;1259;48.306;14.374;2023-04-03T15:42:46;2.30;90.10
2497;DHT22;1259;48.306;14.374;2023-04-03T15:45:13;2.30;89.40
2497;DHT22;1259;48.306;14.374;2023-04-03T15:47:40;2.30;90.00
2497;DHT22;1259;48.306;14.374;2023-04-03T15:50:07;2.20;90.00
2497;DHT22;1259;48.306;14.374;2023-04-03T15:52:33;2.20;91.00
2497;DHT22;1259;48.306;14.374;2023-04-03T15:55:02;2.20;92.50
2497;DHT22;1259;48.306;14.374;2023-04-03T15:57:29;2.30;94.80
2497;DHT22;1259;48.306;14.374;2023-04-03T15:59:55;2.20;96.80
2497;DHT22;1259;48.306;14.374;2023-04-03T16:02:23;1.70;96.20
2497;DHT22;1259;48.306;14.374;2023-04-03T16:04:53;1.60;96.40
2497;DHT22;1259;48.306;14.374;2023-04-03T16:07:19;1.70;96.40
2497;DHT22;1259;48.306;14.374;2023-04-03T16:09:46;1.70;95.70
2497;DHT22;1259;48.306;14.374;2023-04-03T16:12:14;1.70;96.20
2497;DHT22;1259;48.306;14.374;2023-04-03T16:14:41;1.70;95.50
2497;DHT22;1259;48.306;14.374;2023-04-03T16:17:07;1.70;96.30
2497;DHT22;1259;48.306;14.374;2023-04-03T16:19:34;1.60;97.20
2497;DHT22;1259;48.306;14.374;2023-04-03T16:22:01;1.70;98.40
2497;DHT22;1259;48.306;14.374;2023-04-03T16:24:28;1.60;96.50